sensor_id;sensor_type;location;lat;lon;timestamp;temperature;humidity
75819;DHT22;64453;51.944;9.796;2024-02-21T00:00:47;12.20;67.90
75819;DHT22;64453;51.944;9.796;2024-02-21T00:03:16;12.60;67.30
75819;DHT22;64453;51.944;9.796;2024-02-21T00:05:44;12.70;66.90
75819;DHT22;64453;51.944;9.796;2024-02-21T00:08:11;12.20;67.50
75819;DHT22;64453;51.944;9.796;2024-02-21T00:10:38;12.00;68.50
75819;DHT22;64453;51.944;9.796;2024-02-21T00:13:07;12.40;68.80
75819;DHT22;64453;51.944;9.796;2024-02-21T00:15:35;12.50;68.90
75819;DHT22;64453;51.944;9.796;2024-02-21T00:18:03;12.30;67.90
75819;DHT22;64453;51.944;9.796;2024-02-21T00:20:32;11.80;70.30
75819;DHT22;64453;51.944;9.796;2024-02-21T00:22:59;11.60;71.20
75819;DHT22;64453;51.944;9.796;2024-02-21T00:25:26;11.30;73.20
75819;DHT22;64453;51.944;9.796;2024-02-21T00:27:53;11.40;73.00
75819;DHT22;64453;51.944;9.796;2024-02-21T00:30:21;11.50;72.70
75819;DHT22;64453;51.944;9.796;2024-02-21T00:32:48;11.80;72.60
75819;DHT22;64453;51.944;9.796;2024-02-21T00:35:15;12.20;71.80
75819;DHT22;64453;51.944;9.796;2024-02-21T00:37:42;11.80;72.10
75819;DHT22;64453;51.944;9.796;2024-02-21T00:40:10;11.90;72.10
75819;DHT22;64453;51.944;9.796;2024-02-21T00:42:38;11.70;72.70
75819;DHT22;64453;51.944;9.796;2024-02-21T00:45:07;11.70;73.30
75819;DHT22;64453;51.944;9.796;2024-02-21T00:47:36;12.20;72.30
75819;DHT22;64453;51.944;9.796;2024-02-21T00:50:05;12.00;71.40
75819;DHT22;64453;51.944;9.796;2024-02-21T00:52:33;12.50;71.10
75819;DHT22;64453;51.944;9.796;2024-02-21T00:55:00;12.60;70.70
75819;DHT22;64453;51.944;9.796;2024-02-21T00:57:27;12.60;70.40
75819;DHT22;64453;51.944;9.796;2024-02-21T00:59:55;12.40;70.80
75819;DHT22;64453;51.944;9.796;2024-02-21T01:02:22;12.10;71.80
75819;DHT22;64453;51.944;9.796;2024-02-21T01:04:51;12.00;72.00
75819;DHT22;64453;51.944;9.796;2024-02-21T01:07:18;11.90;72.10
75819;DHT22;64453;51.944;9.796;2024-02-21T01:09:45;11.70;73.80
75819;DHT22;64453;51.944;9.796;2024-02-21T01:12:12;12.20;72.60
75819;DHT22;64453;51.944;9.796;2024-02-21T01:14:39;12.30;72.30
75819;DHT22;64453;51.944;9.796;2024-02-21T01:17:06;12.10;72.30
75819;DHT22;64453;51.944;9.796;2024-02-21T01:19:33;12.30;72.50
75819;DHT22;64453;51.944;9.796;2024-02-21T01:22:02;12.50;71.50
75819;DHT22;64453;51.944;9.796;2024-02-21T01:24:29;12.20;72.20
75819;DHT22;64453;51.944;9.796;2024-02-21T01:26:56;12.60;71.10
75819;DHT22;64453;51.944;9.796;2024-02-21T01:29:23;12.90;70.10
75819;DHT22;64453;51.944;9.796;2024-02-21T01:31:50;12.60;70.00
75819;DHT22;64453;51.944;9.796;2024-02-21T01:34:17;12.30;71.60
75819;DHT22;64453;51.944;9.796;2024-02-21T01:40:12;12.70;70.30
75819;DHT22;64453;51.944;9.796;2024-02-21T01:42:39;12.60;70.30
75819;DHT22;64453;51.944;9.796;2024-02-21T01:45:07;12.60;70.10
75819;DHT22;64453;51.944;9.796;2024-02-21T01:47:34;12.80;69.80
75819;DHT22;64453;51.944;9.796;2024-02-21T01:50:08;13.00;69.10
75819;DHT22;64453;51.944;9.796;2024-02-21T01:52:36;13.10;69.20
75819;DHT22;64453;51.944;9.796;2024-02-21T01:55:05;13.10;67.90
75819;DHT22;64453;51.944;9.796;2024-02-21T01:57:34;12.90;68.70
75819;DHT22;64453;51.944;9.796;2024-02-21T02:00:01;13.10;68.20
75819;DHT22;64453;51.944;9.796;2024-02-21T02:02:29;13.30;68.30
75819;DHT22;64453;51.944;9.796;2024-02-21T02:04:58;13.20;67.80
75819;DHT22;64453;51.944;9.796;2024-02-21T02:07:26;13.20;68.00
75819;DHT22;64453;51.944;9.796;2024-02-21T02:09:53;13.20;67.10
75819;DHT22;64453;51.944;9.796;2024-02-21T02:12:20;13.20;67.30
75819;DHT22;64453;51.944;9.796;2024-02-21T02:14:58;13.30;67.50
75819;DHT22;64453;51.944;9.796;2024-02-21T02:17:26;13.40;66.90
75819;DHT22;64453;51.944;9.796;2024-02-21T02:19:53;13.40;66.90
75819;DHT22;64453;51.944;9.796;2024-02-21T02:22:23;13.50;66.90
75819;DHT22;64453;51.944;9.796;2024-02-21T02:25:04;13.40;66.90
75819;DHT22;64453;51.944;9.796;2024-02-21T02:31:38;13.40;66.90
75819;DHT22;64453;51.944;9.796;2024-02-21T02:34:05;13.40;66.60
75819;DHT22;64453;51.944;9.796;2024-02-21T02:36:33;13.40;67.10
75819;DHT22;64453;51.944;9.796;2024-02-21T02:39:01;13.40;67.30
75819;DHT22;64453;51.944;9.796;2024-02-21T02:41:29;13.30;67.50
75819;DHT22;64453;51.944;9.796;2024-02-21T02:43:56;13.40;67.50
75819;DHT22;64453;51.944;9.796;2024-02-21T02:46:23;13.30;68.20
75819;DHT22;64453;51.944;9.796;2024-02-21T02:48:50;13.50;67.30
75819;DHT22;64453;51.944;9.796;2024-02-21T02:51:17;13.50;66.90
75819;DHT22;64453;51.944;9.796;2024-02-21T02:53:44;13.20;66.50
75819;DHT22;64453;51.944;9.796;2024-02-21T02:56:14;13.20;67.20
75819;DHT22;64453;51.944;9.796;2024-02-21T02:58:43;13.30;67.40
75819;DHT22;64453;51.944;9.796;2024-02-21T03:01:11;13.30;67.30
75819;DHT22;64453;51.944;9.796;2024-02-21T03:03:39;13.40;67.00
75819;DHT22;64453;51.944;9.796;2024-02-21T03:06:06;13.30;66.80
75819;DHT22;64453;51.944;9.796;2024-02-21T03:08:33;13.40;67.00
75819;DHT22;64453;51.944;9.796;2024-02-21T03:11:00;13.50;66.70
75819;DHT22;64453;51.944;9.796;2024-02-21T03:13:27;13.40;67.00
75819;DHT22;64453;51.944;9.796;2024-02-21T03:15:55;13.30;66.90
75819;DHT22;64453;51.944;9.796;2024-02-21T03:18:22;13.30;66.60
75819;DHT22;64453;51.944;9.796;2024-02-21T03:20:49;13.20;66.60
75819;DHT22;64453;51.944;9.796;2024-02-21T03:23:16;12.90;66.80
75819;DHT22;64453;51.944;9.796;2024-02-21T03:25:43;13.20;66.80
75819;DHT22;64453;51.944;9.796;2024-02-21T03:28:10;13.30;67.10
75819;DHT22;64453;51.944;9.796;2024-02-21T03:30:38;13.40;67.20
75819;DHT22;64453;51.944;9.796;2024-02-21T03:33:06;13.40;66.60
75819;DHT22;64453;51.944;9.796;2024-02-21T03:35:33;13.40;66.30
75819;DHT22;64453;51.944;9.796;2024-02-21T03:38:00;13.50;66.60
75819;DHT22;64453;51.944;9.796;2024-02-21T03:40:27;13.50;66.30
75819;DHT22;64453;51.944;9.796;2024-02-21T03:42:54;13.20;64.90
75819;DHT22;64453;51.944;9.796;2024-02-21T03:45:21;13.40;65.20
75819;DHT22;64453;51.944;9.796;2024-02-21T03:47:48;13.10;64.30
75819;DHT22;64453;51.944;9.796;2024-02-21T03:50:18;13.30;64.70
75819;DHT22;64453;51.944;9.796;2024-02-21T03:52:45;13.40;64.10
75819;DHT22;64453;51.944;9.796;2024-02-21T03:55:13;13.50;64.10
75819;DHT22;64453;51.944;9.796;2024-02-21T03:57:40;13.20;63.30
75819;DHT22;64453;51.944;9.796;2024-02-21T04:00:08;13.30;64.00
75819;DHT22;64453;51.944;9.796;2024-02-21T04:02:37;13.20;63.30
75819;DHT22;64453;51.944;9.796;2024-02-21T04:05:04;13.40;63.30
75819;DHT22;64453;51.944;9.796;2024-02-21T04:07:33;12.80;63.30
75819;DHT22;64453;51.944;9.796;2024-02-21T04:10:00;12.90;63.40
75819;DHT22;64453;51.944;9.796;2024-02-21T04:12:28;13.10;63.50
75819;DHT22;64453;51.944;9.796;2024-02-21T04:14:55;13.20;63.20
75819;DHT22;64453;51.944;9.796;2024-02-21T04:17:22;13.20;63.30
75819;DHT22;64453;51.944;9.796;2024-02-21T04:19:49;13.20;63.40
75819;DHT22;64453;51.944;9.796;2024-02-21T04:22:16;13.20;63.40
75819;DHT22;64453;51.944;9.796;2024-02-21T04:24:44;13.30;63.10
75819;DHT22;64453;51.944;9.796;2024-02-21T04:27:11;13.20;63.00
75819;DHT22;64453;51.944;9.796;2024-02-21T04:29:38;13.30;62.80
75819;DHT22;64453;51.944;9.796;2024-02-21T04:32:06;13.30;62.50
75819;DHT22;64453;51.944;9.796;2024-02-21T04:34:35;13.20;62.60
75819;DHT22;64453;51.944;9.796;2024-02-21T04:37:02;13.30;62.90
75819;DHT22;64453;51.944;9.796;2024-02-21T04:39:29;12.90;63.20
75819;DHT22;64453;51.944;9.796;2024-02-21T04:41:58;13.00;63.30
75819;DHT22;64453;51.944;9.796;2024-02-21T04:44:25;13.10;64.30
75819;DHT22;64453;51.944;9.796;2024-02-21T04:46:52;12.60;64.60
75819;DHT22;64453;51.944;9.796;2024-02-21T04:49:20;12.80;64.70
75819;DHT22;64453;51.944;9.796;2024-02-21T04:51:47;12.60;64.60
75819;DHT22;64453;51.944;9.796;2024-02-21T04:54:14;12.90;64.20
75819;DHT22;64453;51.944;9.796;2024-02-21T04:56:41;12.40;64.60
75819;DHT22;64453;51.944;9.796;2024-02-21T04:59:09;12.80;64.70
75819;DHT22;64453;51.944;9.796;2024-02-21T05:01:36;12.70;64.80
75819;DHT22;64453;51.944;9.796;2024-02-21T05:04:04;12.70;64.80
75819;DHT22;64453;51.944;9.796;2024-02-21T05:06:37;12.20;64.80
75819;DHT22;64453;51.944;9.796;2024-02-21T05:09:05;12.50;65.80
75819;DHT22;64453;51.944;9.796;2024-02-21T05:11:32;12.50;65.50
75819;DHT22;64453;51.944;9.796;2024-02-21T05:13:59;12.70;65.30
75819;DHT22;64453;51.944;9.796;2024-02-21T05:16:27;12.90;64.80
75819;DHT22;64453;51.944;9.796;2024-02-21T05:18:54;13.00;64.70
75819;DHT22;64453;51.944;9.796;2024-02-21T05:21:22;13.00;64.30
75819;DHT22;64453;51.944;9.796;2024-02-21T05:23:49;13.00;64.40
75819;DHT22;64453;51.944;9.796;2024-02-21T05:26:20;13.00;63.80
75819;DHT22;64453;51.944;9.796;2024-02-21T05:28:48;13.10;63.80
75819;DHT22;64453;51.944;9.796;2024-02-21T05:31:15;13.30;63.40
75819;DHT22;64453;51.944;9.796;2024-02-21T05:33:44;13.10;63.70
75819;DHT22;64453;51.944;9.796;2024-02-21T05:36:11;12.60;64.70
75819;DHT22;64453;51.944;9.796;2024-02-21T05:38:39;12.90;64.60
75819;DHT22;64453;51.944;9.796;2024-02-21T05:41:06;12.90;64.50
75819;DHT22;64453;51.944;9.796;2024-02-21T05:43:33;13.00;64.00
75819;DHT22;64453;51.944;9.796;2024-02-21T05:46:00;13.00;63.80
75819;DHT22;64453;51.944;9.796;2024-02-21T05:48:27;13.10;63.60
75819;DHT22;64453;51.944;9.796;2024-02-21T05:50:55;13.00;64.10
75819;DHT22;64453;51.944;9.796;2024-02-21T05:53:22;13.10;63.50
75819;DHT22;64453;51.944;9.796;2024-02-21T05:55:49;13.00;63.70
75819;DHT22;64453;51.944;9.796;2024-02-21T05:58:16;12.80;63.80
75819;DHT22;64453;51.944;9.796;2024-02-21T06:00:43;12.50;65.20
75819;DHT22;64453;51.944;9.796;2024-02-21T06:03:10;12.50;65.30
75819;DHT22;64453;51.944;9.796;2024-02-21T06:05:37;12.30;65.80
75819;DHT22;64453;51.944;9.796;2024-02-21T06:08:06;12.50;66.00
75819;DHT22;64453;51.944;9.796;2024-02-21T06:10:34;12.70;65.40
75819;DHT22;64453;51.944;9.796;2024-02-21T06:13:01;12.70;64.90
75819;DHT22;64453;51.944;9.796;2024-02-21T06:15:28;12.60;65.00
75819;DHT22;64453;51.944;9.796;2024-02-21T06:17:55;12.30;65.10
75819;DHT22;64453;51.944;9.796;2024-02-21T06:20:23;12.30;65.50
75819;DHT22;64453;51.944;9.796;2024-02-21T06:22:49;12.30;65.30
75819;DHT22;64453;51.944;9.796;2024-02-21T06:25:18;12.00;65.10
75819;DHT22;64453;51.944;9.796;2024-02-21T06:27:45;12.30;66.00
75819;DHT22;64453;51.944;9.796;2024-02-21T06:30:17;12.30;65.80
75819;DHT22;64453;51.944;9.796;2024-02-21T06:32:43;12.10;64.80
75819;DHT22;64453;51.944;9.796;2024-02-21T06:35:11;12.30;65.80
75819;DHT22;64453;51.944;9.796;2024-02-21T06:37:37;12.40;65.30
75819;DHT22;64453;51.944;9.796;2024-02-21T06:40:06;12.60;64.90
75819;DHT22;64453;51.944;9.796;2024-02-21T06:42:35;12.40;65.10
75819;DHT22;64453;51.944;9.796;2024-02-21T06:45:03;12.60;64.50
75819;DHT22;64453;51.944;9.796;2024-02-21T06:47:30;12.70;64.20
75819;DHT22;64453;51.944;9.796;2024-02-21T06:49:57;12.90;64.10
75819;DHT22;64453;51.944;9.796;2024-02-21T06:52:24;13.00;63.30
75819;DHT22;64453;51.944;9.796;2024-02-21T06:54:52;12.60;64.20
75819;DHT22;64453;51.944;9.796;2024-02-21T06:57:19;12.70;65.10
75819;DHT22;64453;51.944;9.796;2024-02-21T06:59:48;12.90;63.60
75819;DHT22;64453;51.944;9.796;2024-02-21T07:02:15;12.80;63.80
75819;DHT22;64453;51.944;9.796;2024-02-21T07:04:42;12.50;64.70
75819;DHT22;64453;51.944;9.796;2024-02-21T07:07:09;12.40;64.90
75819;DHT22;64453;51.944;9.796;2024-02-21T07:09:36;12.60;64.80
75819;DHT22;64453;51.944;9.796;2024-02-21T07:12:04;12.90;64.00
75819;DHT22;64453;51.944;9.796;2024-02-21T07:14:32;12.80;64.00
75819;DHT22;64453;51.944;9.796;2024-02-21T07:17:00;12.70;63.60
75819;DHT22;64453;51.944;9.796;2024-02-21T07:19:29;12.70;64.10
75819;DHT22;64453;51.944;9.796;2024-02-21T07:21:55;12.70;63.80
75819;DHT22;64453;51.944;9.796;2024-02-21T07:24:23;12.70;64.30
75819;DHT22;64453;51.944;9.796;2024-02-21T07:26:50;12.70;64.10
75819;DHT22;64453;51.944;9.796;2024-02-21T07:29:17;12.70;63.70
75819;DHT22;64453;51.944;9.796;2024-02-21T07:31:44;12.80;64.10
75819;DHT22;64453;51.944;9.796;2024-02-21T07:34:19;12.80;63.50
75819;DHT22;64453;51.944;9.796;2024-02-21T07:36:46;13.00;63.40
75819;DHT22;64453;51.944;9.796;2024-02-21T07:39:13;12.90;63.00
75819;DHT22;64453;51.944;9.796;2024-02-21T07:41:40;13.00;63.10
75819;DHT22;64453;51.944;9.796;2024-02-21T07:44:10;13.00;63.20
75819;DHT22;64453;51.944;9.796;2024-02-21T07:46:37;13.10;62.70
75819;DHT22;64453;51.944;9.796;2024-02-21T07:49:04;12.90;62.80
75819;DHT22;64453;51.944;9.796;2024-02-21T07:51:33;12.80;62.80
75819;DHT22;64453;51.944;9.796;2024-02-21T07:54:01;12.90;63.30
75819;DHT22;64453;51.944;9.796;2024-02-21T07:56:29;13.00;63.00
75819;DHT22;64453;51.944;9.796;2024-02-21T07:58:57;12.90;62.90
75819;DHT22;64453;51.944;9.796;2024-02-21T08:01:24;13.10;62.90
75819;DHT22;64453;51.944;9.796;2024-02-21T08:03:51;13.20;62.60
75819;DHT22;64453;51.944;9.796;2024-02-21T08:06:18;13.40;62.40
75819;DHT22;64453;51.944;9.796;2024-02-21T08:08:46;13.40;62.20
75819;DHT22;64453;51.944;9.796;2024-02-21T08:11:13;13.50;61.90
75819;DHT22;64453;51.944;9.796;2024-02-21T08:13:40;13.50;61.60
75819;DHT22;64453;51.944;9.796;2024-02-21T08:16:07;13.60;61.60
75819;DHT22;64453;51.944;9.796;2024-02-21T08:18:34;13.50;60.90
75819;DHT22;64453;51.944;9.796;2024-02-21T08:21:04;13.50;61.20
75819;DHT22;64453;51.944;9.796;2024-02-21T08:23:31;13.50;61.20
75819;DHT22;64453;51.944;9.796;2024-02-21T08:26:02;13.50;61.20
75819;DHT22;64453;51.944;9.796;2024-02-21T08:28:30;13.50;61.50
75819;DHT22;64453;51.944;9.796;2024-02-21T08:31:00;13.50;61.40
75819;DHT22;64453;51.944;9.796;2024-02-21T08:33:27;13.40;60.80
75819;DHT22;64453;51.944;9.796;2024-02-21T08:35:55;13.10;61.60
75819;DHT22;64453;51.944;9.796;2024-02-21T08:38:22;13.10;61.10
75819;DHT22;64453;51.944;9.796;2024-02-21T08:40:49;13.20;61.00
75819;DHT22;64453;51.944;9.796;2024-02-21T08:43:17;12.90;61.10
75819;DHT22;64453;51.944;9.796;2024-02-21T08:45:44;13.10;61.40
75819;DHT22;64453;51.944;9.796;2024-02-21T08:48:12;13.30;60.60
75819;DHT22;64453;51.944;9.796;2024-02-21T08:50:39;13.40;60.10
75819;DHT22;64453;51.944;9.796;2024-02-21T08:53:07;13.40;59.90
75819;DHT22;64453;51.944;9.796;2024-02-21T08:55:35;13.40;59.30
75819;DHT22;64453;51.944;9.796;2024-02-21T08:58:02;13.60;59.00
75819;DHT22;64453;51.944;9.796;2024-02-21T09:00:31;13.70;58.60
75819;DHT22;64453;51.944;9.796;2024-02-21T09:02:58;13.40;58.60
75819;DHT22;64453;51.944;9.796;2024-02-21T09:05:25;13.50;58.70
75819;DHT22;64453;51.944;9.796;2024-02-21T09:07:53;13.60;58.60
75819;DHT22;64453;51.944;9.796;2024-02-21T09:10:20;13.70;58.40
75819;DHT22;64453;51.944;9.796;2024-02-21T09:12:49;13.70;58.80
75819;DHT22;64453;51.944;9.796;2024-02-21T09:15:16;13.50;58.30
75819;DHT22;64453;51.944;9.796;2024-02-21T09:17:44;13.40;58.30
75819;DHT22;64453;51.944;9.796;2024-02-21T09:20:11;13.60;58.50
75819;DHT22;64453;51.944;9.796;2024-02-21T09:22:41;13.60;58.40
75819;DHT22;64453;51.944;9.796;2024-02-21T09:25:08;13.70;58.00
75819;DHT22;64453;51.944;9.796;2024-02-21T09:27:37;13.60;58.00
75819;DHT22;64453;51.944;9.796;2024-02-21T09:30:11;13.50;58.10
75819;DHT22;64453;51.944;9.796;2024-02-21T09:32:39;13.50;58.10
75819;DHT22;64453;51.944;9.796;2024-02-21T09:35:08;13.50;58.20
75819;DHT22;64453;51.944;9.796;2024-02-21T09:37:36;13.30;57.80
75819;DHT22;64453;51.944;9.796;2024-02-21T09:40:04;13.20;58.40
75819;DHT22;64453;51.944;9.796;2024-02-21T09:42:38;13.30;57.80
75819;DHT22;64453;51.944;9.796;2024-02-21T09:45:08;13.30;58.40
75819;DHT22;64453;51.944;9.796;2024-02-21T09:47:58;13.30;57.90
75819;DHT22;64453;51.944;9.796;2024-02-21T09:50:34;13.50;57.60
75819;DHT22;64453;51.944;9.796;2024-02-21T09:53:04;13.40;57.90
75819;DHT22;64453;51.944;9.796;2024-02-21T09:55:33;13.20;57.70
75819;DHT22;64453;51.944;9.796;2024-02-21T09:58:02;13.50;58.30
75819;DHT22;64453;51.944;9.796;2024-02-21T10:00:32;13.70;58.00
75819;DHT22;64453;51.944;9.796;2024-02-21T10:02:59;13.70;58.10
75819;DHT22;64453;51.944;9.796;2024-02-21T10:05:26;13.80;57.70
75819;DHT22;64453;51.944;9.796;2024-02-21T10:07:55;13.70;57.10
75819;DHT22;64453;51.944;9.796;2024-02-21T10:10:23;13.60;57.50
75819;DHT22;64453;51.944;9.796;2024-02-21T10:12:50;13.80;57.50
75819;DHT22;64453;51.944;9.796;2024-02-21T10:15:20;13.70;58.00
75819;DHT22;64453;51.944;9.796;2024-02-21T10:17:49;13.90;57.40
75819;DHT22;64453;51.944;9.796;2024-02-21T10:20:16;13.20;58.00
75819;DHT22;64453;51.944;9.796;2024-02-21T10:22:43;13.30;59.10
75819;DHT22;64453;51.944;9.796;2024-02-21T10:25:12;13.60;58.20
75819;DHT22;64453;51.944;9.796;2024-02-21T10:27:40;13.70;57.90
75819;DHT22;64453;51.944;9.796;2024-02-21T10:30:13;13.90;58.20
75819;DHT22;64453;51.944;9.796;2024-02-21T10:32:49;13.70;57.50
75819;DHT22;64453;51.944;9.796;2024-02-21T10:35:26;13.80;57.70
75819;DHT22;64453;51.944;9.796;2024-02-21T10:37:55;13.20;57.00
75819;DHT22;64453;51.944;9.796;2024-02-21T10:40:26;13.50;58.30
75819;DHT22;64453;51.944;9.796;2024-02-21T10:42:57;13.80;57.10
75819;DHT22;64453;51.944;9.796;2024-02-21T10:45:30;14.00;56.80
75819;DHT22;64453;51.944;9.796;2024-02-21T10:48:07;13.80;56.00
75819;DHT22;64453;51.944;9.796;2024-02-21T10:50:50;13.90;56.50
75819;DHT22;64453;51.944;9.796;2024-02-21T10:53:28;14.00;56.40
75819;DHT22;64453;51.944;9.796;2024-02-21T10:56:21;14.10;56.00
75819;DHT22;64453;51.944;9.796;2024-02-21T10:58:49;14.10;55.60
75819;DHT22;64453;51.944;9.796;2024-02-21T11:01:18;14.20;55.40
75819;DHT22;64453;51.944;9.796;2024-02-21T11:03:47;14.20;54.80
75819;DHT22;64453;51.944;9.796;2024-02-21T11:06:16;14.20;54.50
75819;DHT22;64453;51.944;9.796;2024-02-21T11:12:46;14.10;55.10
75819;DHT22;64453;51.944;9.796;2024-02-21T11:19:20;13.30;56.00
75819;DHT22;64453;51.944;9.796;2024-02-21T11:21:50;13.50;55.70
75819;DHT22;64453;51.944;9.796;2024-02-21T11:24:26;13.50;55.80
75819;DHT22;64453;51.944;9.796;2024-02-21T11:26:54;13.90;55.10
75819;DHT22;64453;51.944;9.796;2024-02-21T11:29:26;13.90;55.30
75819;DHT22;64453;51.944;9.796;2024-02-21T11:31:55;14.00;55.30
75819;DHT22;64453;51.944;9.796;2024-02-21T11:34:22;14.20;54.90
75819;DHT22;64453;51.944;9.796;2024-02-21T11:37:14;14.20;55.00
75819;DHT22;64453;51.944;9.796;2024-02-21T11:39:49;14.30;54.40
75819;DHT22;64453;51.944;9.796;2024-02-21T11:46:21;14.30;54.40
75819;DHT22;64453;51.944;9.796;2024-02-21T11:48:49;14.20;54.10
75819;DHT22;64453;51.944;9.796;2024-02-21T11:54:44;14.00;54.30
75819;DHT22;64453;51.944;9.796;2024-02-21T11:57:11;14.30;54.80
75819;DHT22;64453;51.944;9.796;2024-02-21T11:59:40;14.50;54.50
75819;DHT22;64453;51.944;9.796;2024-02-21T12:02:08;14.40;53.60
75819;DHT22;64453;51.944;9.796;2024-02-21T12:04:36;14.20;54.10
75819;DHT22;64453;51.944;9.796;2024-02-21T12:07:04;14.10;54.70
75819;DHT22;64453;51.944;9.796;2024-02-21T12:09:31;14.00;55.00
75819;DHT22;64453;51.944;9.796;2024-02-21T12:12:05;14.10;55.00
75819;DHT22;64453;51.944;9.796;2024-02-21T12:14:34;13.90;55.10
75819;DHT22;64453;51.944;9.796;2024-02-21T12:17:02;14.00;55.10
75819;DHT22;64453;51.944;9.796;2024-02-21T12:19:33;13.90;55.90
75819;DHT22;64453;51.944;9.796;2024-02-21T12:22:00;14.10;56.10
75819;DHT22;64453;51.944;9.796;2024-02-21T12:24:31;14.20;55.30
75819;DHT22;64453;51.944;9.796;2024-02-21T12:26:58;14.50;55.10
75819;DHT22;64453;51.944;9.796;2024-02-21T12:29:25;14.70;54.80
75819;DHT22;64453;51.944;9.796;2024-02-21T12:31:52;14.90;54.20
75819;DHT22;64453;51.944;9.796;2024-02-21T12:34:20;14.90;53.60
75819;DHT22;64453;51.944;9.796;2024-02-21T12:36:51;14.90;53.70
75819;DHT22;64453;51.944;9.796;2024-02-21T12:39:17;14.90;53.30
75819;DHT22;64453;51.944;9.796;2024-02-21T12:41:45;14.80;53.50
75819;DHT22;64453;51.944;9.796;2024-02-21T12:44:12;14.80;54.00
75819;DHT22;64453;51.944;9.796;2024-02-21T12:46:40;14.80;54.50
75819;DHT22;64453;51.944;9.796;2024-02-21T12:49:07;14.60;53.90
75819;DHT22;64453;51.944;9.796;2024-02-21T12:51:34;14.70;54.50
75819;DHT22;64453;51.944;9.796;2024-02-21T12:54:03;14.70;54.80
75819;DHT22;64453;51.944;9.796;2024-02-21T12:56:30;14.80;55.20
75819;DHT22;64453;51.944;9.796;2024-02-21T12:58:57;14.80;55.40
75819;DHT22;64453;51.944;9.796;2024-02-21T13:01:24;14.90;55.50
75819;DHT22;64453;51.944;9.796;2024-02-21T13:03:52;15.00;55.20
75819;DHT22;64453;51.944;9.796;2024-02-21T13:06:24;15.00;54.80
75819;DHT22;64453;51.944;9.796;2024-02-21T13:08:51;15.10;54.90
75819;DHT22;64453;51.944;9.796;2024-02-21T13:11:20;15.00;54.80
75819;DHT22;64453;51.944;9.796;2024-02-21T13:13:47;15.00;54.80
75819;DHT22;64453;51.944;9.796;2024-02-21T13:16:15;14.90;55.00
75819;DHT22;64453;51.944;9.796;2024-02-21T13:18:41;15.10;55.00
75819;DHT22;64453;51.944;9.796;2024-02-21T13:21:10;15.20;54.70
75819;DHT22;64453;51.944;9.796;2024-02-21T13:23:37;15.20;54.60
75819;DHT22;64453;51.944;9.796;2024-02-21T13:26:04;15.20;54.90
75819;DHT22;64453;51.944;9.796;2024-02-21T13:28:32;15.40;54.40
75819;DHT22;64453;51.944;9.796;2024-02-21T13:30:59;15.30;54.70
75819;DHT22;64453;51.944;9.796;2024-02-21T13:33:26;15.20;54.40
75819;DHT22;64453;51.944;9.796;2024-02-21T13:35:54;15.00;54.90
75819;DHT22;64453;51.944;9.796;2024-02-21T13:38:21;15.10;55.40
75819;DHT22;64453;51.944;9.796;2024-02-21T13:40:49;15.10;55.60
75819;DHT22;64453;51.944;9.796;2024-02-21T13:43:16;15.20;56.10
75819;DHT22;64453;51.944;9.796;2024-02-21T13:45:56;15.10;56.20
75819;DHT22;64453;51.944;9.796;2024-02-21T13:51:35;15.10;56.00
75819;DHT22;64453;51.944;9.796;2024-02-21T13:54:03;15.10;56.30
75819;DHT22;64453;51.944;9.796;2024-02-21T13:56:30;15.20;56.60
75819;DHT22;64453;51.944;9.796;2024-02-21T13:58:58;15.10;56.20
75819;DHT22;64453;51.944;9.796;2024-02-21T14:05:08;15.10;56.40
75819;DHT22;64453;51.944;9.796;2024-02-21T14:07:35;15.10;56.60
75819;DHT22;64453;51.944;9.796;2024-02-21T14:13:46;15.00;57.20
75819;DHT22;64453;51.944;9.796;2024-02-21T14:16:13;15.00;56.50
75819;DHT22;64453;51.944;9.796;2024-02-21T14:18:40;15.10;56.40
75819;DHT22;64453;51.944;9.796;2024-02-21T14:21:09;15.10;57.00
75819;DHT22;64453;51.944;9.796;2024-02-21T14:23:37;15.10;57.10
75819;DHT22;64453;51.944;9.796;2024-02-21T14:26:05;15.00;57.10
75819;DHT22;64453;51.944;9.796;2024-02-21T14:28:33;14.90;57.40
75819;DHT22;64453;51.944;9.796;2024-02-21T14:31:00;14.50;57.20
75819;DHT22;64453;51.944;9.796;2024-02-21T14:33:29;14.80;57.70
75819;DHT22;64453;51.944;9.796;2024-02-21T14:35:56;14.90;58.00
75819;DHT22;64453;51.944;9.796;2024-02-21T14:38:25;14.90;57.70
75819;DHT22;64453;51.944;9.796;2024-02-21T14:40:53;14.90;57.50
75819;DHT22;64453;51.944;9.796;2024-02-21T14:43:20;15.00;57.70
75819;DHT22;64453;51.944;9.796;2024-02-21T14:45:48;14.90;57.90
75819;DHT22;64453;51.944;9.796;2024-02-21T14:48:17;14.90;57.90
75819;DHT22;64453;51.944;9.796;2024-02-21T14:50:45;14.90;57.90
75819;DHT22;64453;51.944;9.796;2024-02-21T15:01:24;14.80;57.50
75819;DHT22;64453;51.944;9.796;2024-02-21T15:03:51;14.50;57.20
75819;DHT22;64453;51.944;9.796;2024-02-21T15:06:18;14.70;57.70
75819;DHT22;64453;51.944;9.796;2024-02-21T15:08:47;14.60;56.80
75819;DHT22;64453;51.944;9.796;2024-02-21T15:11:15;14.70;56.80
75819;DHT22;64453;51.944;9.796;2024-02-21T15:22:19;14.80;56.60
75819;DHT22;64453;51.944;9.796;2024-02-21T15:24:48;14.70;56.70
75819;DHT22;64453;51.944;9.796;2024-02-21T15:27:15;14.80;56.40
75819;DHT22;64453;51.944;9.796;2024-02-21T15:29:42;14.90;56.60
75819;DHT22;64453;51.944;9.796;2024-02-21T15:32:10;14.90;56.40
75819;DHT22;64453;51.944;9.796;2024-02-21T15:34:37;14.80;56.40
75819;DHT22;64453;51.944;9.796;2024-02-21T15:37:05;14.80;55.80
75819;DHT22;64453;51.944;9.796;2024-02-21T15:39:33;14.80;56.00
75819;DHT22;64453;51.944;9.796;2024-02-21T15:42:02;14.80;56.00
75819;DHT22;64453;51.944;9.796;2024-02-21T15:44:29;14.70;55.90
75819;DHT22;64453;51.944;9.796;2024-02-21T15:46:56;14.50;55.80
75819;DHT22;64453;51.944;9.796;2024-02-21T15:49:24;14.50;56.00
75819;DHT22;64453;51.944;9.796;2024-02-21T15:51:52;14.50;56.00
75819;DHT22;64453;51.944;9.796;2024-02-21T15:54:19;14.60;55.80
75819;DHT22;64453;51.944;9.796;2024-02-21T15:56:47;14.60;55.40
75819;DHT22;64453;51.944;9.796;2024-02-21T15:59:14;14.50;54.50
75819;DHT22;64453;51.944;9.796;2024-02-21T16:01:41;14.50;55.20
75819;DHT22;64453;51.944;9.796;2024-02-21T16:04:09;14.50;55.20
75819;DHT22;64453;51.944;9.796;2024-02-21T16:06:36;14.30;54.90
75819;DHT22;64453;51.944;9.796;2024-02-21T16:09:03;14.30;54.80
75819;DHT22;64453;51.944;9.796;2024-02-21T16:11:34;14.20;55.40
75819;DHT22;64453;51.944;9.796;2024-02-21T16:14:03;14.20;54.50
75819;DHT22;64453;51.944;9.796;2024-02-21T16:16:31;14.40;54.50
75819;DHT22;64453;51.944;9.796;2024-02-21T16:19:01;14.50;54.70
75819;DHT22;64453;51.944;9.796;2024-02-21T16:21:31;14.30;54.60
75819;DHT22;64453;51.944;9.796;2024-02-21T16:23:58;14.20;54.30
75819;DHT22;64453;51.944;9.796;2024-02-21T16:26:25;14.40;54.40